createdAt,value
2018-01-20T00:01:39.512Z,9.10
2018-01-20T00:04:07.808Z,9.90
2018-01-20T00:06:35.418Z,10.83
2018-01-20T00:09:02.932Z,9.20
2018-01-20T00:11:42.264Z,10.90
2018-01-20T00:14:10.578Z,9.27
2018-01-20T00:16:38.115Z,8.93
2018-01-20T00:19:05.654Z,11.73
2018-01-20T00:21:33.156Z,9.47
2018-01-20T00:24:00.698Z,9.13
2018-01-20T00:26:33.981Z,12.27
2018-01-20T00:29:01.491Z,9.93
2018-01-20T00:31:29.015Z,10.43
2018-01-20T00:33:56.515Z,10.53
2018-01-20T00:36:24.052Z,14.53
2018-01-20T00:38:51.609Z,11.57
2018-01-20T00:41:19.119Z,8.87
2018-01-20T00:43:47.425Z,9.10
2018-01-20T00:46:14.932Z,10.67
2018-01-20T00:48:42.465Z,11.10
2018-01-20T00:51:10.011Z,9.53
2018-01-20T00:53:37.508Z,8.77
2018-01-20T00:56:05.043Z,9.53
2018-01-20T00:58:32.555Z,8.37
2018-01-20T01:01:00.865Z,9.50
2018-01-20T01:03:28.568Z,11.33
2018-01-20T01:05:56.165Z,8.27
2018-01-20T01:08:23.711Z,9.57
2018-01-20T01:10:51.243Z,7.80
2018-01-20T01:13:18.779Z,7.63
2018-01-20T01:15:46.286Z,7.00
2018-01-20T01:18:14.579Z,7.03
2018-01-20T01:20:42.090Z,7.53
2018-01-20T01:23:09.620Z,9.30
2018-01-20T01:25:37.127Z,7.10
2018-01-20T01:28:04.680Z,7.57
2018-01-20T01:30:32.187Z,7.63
2018-01-20T01:32:59.692Z,6.43
2018-01-20T01:35:27.218Z,7.20
2018-01-20T01:37:54.727Z,6.93
2018-01-20T01:40:22.278Z,7.50
2018-01-20T01:42:50.099Z,6.60
2018-01-20T01:45:17.677Z,6.73
2018-01-20T01:47:45.185Z,6.70
2018-01-20T01:50:12.723Z,5.60
2018-01-20T01:52:40.252Z,5.67
2018-01-20T01:55:07.757Z,7.43
2018-01-20T01:57:36.084Z,7.10
2018-01-20T02:00:03.592Z,6.17
2018-01-20T02:02:31.889Z,4.90
2018-01-20T02:04:59.444Z,5.70
2018-01-20T02:07:26.959Z,5.50
2018-01-20T02:09:54.499Z,5.33
2018-01-20T02:12:22.032Z,5.27
2018-01-20T02:14:49.582Z,5.30
2018-01-20T02:17:17.124Z,5.77
2018-01-20T02:19:44.624Z,5.27
2018-01-20T02:22:12.158Z,4.93
2018-01-20T02:24:39.663Z,5.03
2018-01-20T02:27:07.209Z,6.03
2018-01-20T02:29:34.760Z,4.77
2018-01-20T02:32:02.285Z,4.73
2018-01-20T02:34:29.847Z,4.60
2018-01-20T02:36:57.365Z,5.33
2018-01-20T02:39:24.904Z,4.50
2018-01-20T02:41:52.456Z,4.83
2018-01-20T02:44:19.973Z,6.77
2018-01-20T02:46:48.366Z,3.37
2018-01-20T02:49:15.976Z,3.47
2018-01-20T02:51:43.506Z,3.83
2018-01-20T02:54:11.059Z,3.33
2018-01-20T02:59:20.433Z,4.77
2018-01-20T03:01:47.948Z,3.70
2018-01-20T03:04:15.456Z,4.70
2018-01-20T03:06:43.008Z,3.87
2018-01-20T03:09:10.522Z,4.23
2018-01-20T03:11:38.853Z,3.83
2018-01-20T03:14:06.363Z,3.20
2018-01-20T03:16:34.653Z,3.57
2018-01-20T03:19:02.226Z,3.40
2018-01-20T03:21:29.735Z,2.90
2018-01-20T03:23:57.279Z,4.53
2018-01-20T03:26:24.828Z,4.30
2018-01-20T03:28:52.344Z,3.00
2018-01-20T03:31:19.906Z,2.77
2018-01-20T03:33:47.445Z,3.17
2018-01-20T03:36:14.995Z,2.90
2018-01-20T03:38:42.505Z,3.07
2018-01-20T03:41:10.021Z,4.40
2018-01-20T03:43:37.573Z,3.87
2018-01-20T03:46:05.145Z,3.57
2018-01-20T03:48:33.428Z,2.97
2018-01-20T03:51:00.984Z,3.33
2018-01-20T03:53:29.265Z,2.70
2018-01-20T03:55:56.813Z,2.90
2018-01-20T03:58:25.094Z,4.03
2018-01-20T04:00:52.641Z,2.93
2018-01-20T04:03:20.943Z,3.40
2018-01-20T04:05:48.504Z,6.57
2018-01-20T04:08:16.049Z,6.30
2018-01-20T04:10:44.342Z,5.80
2018-01-20T04:13:11.892Z,4.87
2018-01-20T04:15:39.440Z,3.80
2018-01-20T04:18:06.992Z,5.33
2018-01-20T04:20:35.290Z,5.00
2018-01-20T04:23:02.836Z,6.73
2018-01-20T04:25:31.128Z,4.00
2018-01-20T04:27:58.692Z,4.60
2018-01-20T04:30:26.218Z,3.13
2018-01-20T04:32:53.777Z,3.23
2018-01-20T04:35:21.312Z,4.37
2018-01-20T04:37:48.826Z,4.03
2018-01-20T04:40:17.136Z,3.80
2018-01-20T04:42:44.677Z,6.17
2018-01-20T04:45:12.184Z,8.57
2018-01-20T04:47:39.724Z,7.33
2018-01-20T04:50:07.255Z,8.67
2018-01-20T04:52:34.814Z,12.60
2018-01-20T04:55:02.368Z,4.53
2018-01-20T04:57:29.885Z,4.97
2018-01-20T04:59:57.488Z,7.67
2018-01-20T05:02:25.059Z,5.30
2018-01-20T05:04:52.572Z,7.37
2018-01-20T05:07:20.124Z,7.27
2018-01-20T05:09:47.673Z,8.97
2018-01-20T05:12:15.184Z,7.53
2018-01-20T05:14:42.737Z,5.40
2018-01-20T05:17:10.256Z,2.20
2018-01-20T05:19:37.812Z,3.07
2018-01-20T05:22:05.321Z,2.63
2018-01-20T05:24:32.857Z,4.73
2018-01-20T05:27:00.382Z,3.13
2018-01-20T05:29:27.936Z,2.53
2018-01-20T05:31:55.501Z,4.27
2018-01-20T05:34:23.029Z,2.60
2018-01-20T05:36:50.578Z,2.30
2018-01-20T05:39:18.090Z,2.50
2018-01-20T05:41:45.622Z,4.70
2018-01-20T05:44:13.196Z,2.23
2018-01-20T05:46:40.721Z,2.93
2018-01-20T05:49:08.232Z,2.97
2018-01-20T05:51:35.788Z,2.53
2018-01-20T05:54:03.337Z,2.20
2018-01-20T05:56:30.904Z,2.97
2018-01-20T05:58:58.462Z,2.73
2018-01-20T06:01:25.980Z,3.77
2018-01-20T06:03:53.498Z,6.23
2018-01-20T06:06:21.843Z,12.37
2018-01-20T06:08:49.364Z,8.43
2018-01-20T06:11:16.908Z,3.60
2018-01-20T06:13:44.425Z,4.33
2018-01-20T06:16:11.977Z,3.60
2018-01-20T06:18:39.525Z,2.60
2018-01-20T06:21:07.117Z,2.90
2018-01-20T06:23:34.659Z,4.10
2018-01-20T06:26:02.208Z,3.20
2018-01-20T06:28:29.766Z,2.10
2018-01-20T06:30:57.329Z,3.57
2018-01-20T06:33:24.844Z,2.17
2018-01-20T06:35:53.168Z,4.90
2018-01-20T06:38:20.692Z,3.63
2018-01-20T06:40:48.248Z,4.37
2018-01-20T06:43:15.803Z,2.87
2018-01-20T06:45:43.356Z,1.90
2018-01-20T06:48:11.672Z,4.60
2018-01-20T06:50:39.219Z,3.47
2018-01-20T06:53:06.801Z,2.00
2018-01-20T06:55:34.703Z,3.30
2018-01-20T06:58:02.222Z,3.60
2018-01-20T07:00:29.769Z,2.00
2018-01-20T07:02:57.326Z,2.53
2018-01-20T07:05:24.839Z,2.60
2018-01-20T07:07:52.401Z,4.27
2018-01-20T07:10:19.971Z,2.40
2018-01-20T07:12:47.521Z,3.77
2018-01-20T07:15:15.034Z,2.10
2018-01-20T07:17:42.616Z,3.50
2018-01-20T07:20:11.096Z,4.20
2018-01-20T07:22:38.637Z,2.43
2018-01-20T07:25:06.182Z,2.83
2018-01-20T07:27:33.700Z,4.40
2018-01-20T07:30:01.264Z,4.13
2018-01-20T07:32:29.594Z,2.60
2018-01-20T07:34:57.159Z,3.37
2018-01-20T07:37:24.717Z,3.53
2018-01-20T07:39:57.964Z,5.43
2018-01-20T07:42:25.468Z,3.40
2018-01-20T07:44:53.011Z,3.50
2018-01-20T07:47:20.580Z,3.70
2018-01-20T07:49:48.256Z,3.87
2018-01-20T07:52:15.792Z,2.70
2018-01-20T07:54:43.305Z,4.63
2018-01-20T07:57:10.862Z,5.27
2018-01-20T07:59:38.416Z,8.07
2018-01-20T08:02:05.941Z,4.60
2018-01-20T08:04:33.502Z,5.57
2018-01-20T08:07:01.025Z,4.27
2018-01-20T08:09:28.581Z,5.07
2018-01-20T08:11:56.899Z,4.20
2018-01-20T08:14:24.419Z,6.70
2018-01-20T08:16:52.732Z,5.30
2018-01-20T08:19:20.439Z,3.27
2018-01-20T08:21:47.982Z,5.30
2018-01-20T08:24:15.578Z,3.53
2018-01-20T08:26:43.144Z,5.90
2018-01-20T08:29:10.768Z,3.57
2018-01-20T08:31:38.314Z,6.27
2018-01-20T08:34:05.856Z,4.03
2018-01-20T08:36:33.407Z,5.60
2018-01-20T08:39:00.951Z,9.90
2018-01-20T08:41:28.467Z,6.67
2018-01-20T08:43:56.029Z,3.77
2018-01-20T08:46:23.553Z,5.63
2018-01-20T08:48:51.169Z,4.20
2018-01-20T08:51:19.070Z,5.30
2018-01-20T08:53:46.597Z,3.00
2018-01-20T08:56:14.153Z,2.77
2018-01-20T08:58:41.665Z,7.10
2018-01-20T09:01:09.231Z,5.97
2018-01-20T09:03:36.778Z,3.07
2018-01-20T09:06:04.307Z,3.60
2018-01-20T09:08:31.904Z,5.93
2018-01-20T09:10:59.465Z,7.53
2018-01-20T09:13:27.804Z,5.37
2018-01-20T09:15:56.080Z,4.30
2018-01-20T09:18:24.452Z,4.87
2018-01-20T09:20:52.749Z,3.63
2018-01-20T09:23:20.365Z,5.60
2018-01-20T09:25:47.926Z,4.40
2018-01-20T09:28:15.497Z,5.53
2018-01-20T09:30:43.782Z,4.33
2018-01-20T09:33:11.344Z,5.87
2018-01-20T09:35:39.643Z,8.43
2018-01-20T09:38:07.190Z,4.97
2018-01-20T09:40:34.756Z,6.03
2018-01-20T09:43:02.306Z,6.53
2018-01-20T09:45:29.850Z,8.87
2018-01-20T09:47:58.127Z,4.47
2018-01-20T09:50:25.709Z,4.13
2018-01-20T09:52:53.219Z,4.23
2018-01-20T09:55:20.777Z,4.60
2018-01-20T09:57:48.303Z,7.93
2018-01-20T10:00:15.817Z,3.50
2018-01-20T10:02:43.377Z,7.37
2018-01-20T10:05:10.909Z,9.10
2018-01-20T10:07:39.220Z,9.23
2018-01-20T10:10:07.520Z,5.43
2018-01-20T10:12:35.083Z,6.30
2018-01-20T10:15:02.640Z,4.13
2018-01-20T10:17:30.226Z,6.93
2018-01-20T10:19:58.953Z,7.57
2018-01-20T10:22:26.518Z,6.17
2018-01-20T10:24:54.069Z,5.93
2018-01-20T10:27:21.634Z,7.77
2018-01-20T10:29:49.208Z,4.93
2018-01-20T10:32:16.748Z,4.43
2018-01-20T10:34:44.336Z,12.63
2018-01-20T10:37:11.993Z,11.20
2018-01-20T10:39:40.373Z,7.63
2018-01-20T10:42:08.787Z,9.47
2018-01-20T10:44:37.133Z,10.30
2018-01-20T10:47:05.439Z,7.77
2018-01-20T10:49:33.030Z,4.77
2018-01-20T10:52:00.563Z,4.43
2018-01-20T10:54:28.111Z,5.13
2018-01-20T10:56:55.632Z,6.50
2018-01-20T10:59:23.959Z,4.67
2018-01-20T11:01:51.513Z,5.63
2018-01-20T11:04:19.029Z,6.20
2018-01-20T11:06:46.637Z,5.67
2018-01-20T11:09:14.375Z,4.40
2018-01-20T11:11:41.966Z,3.70
2018-01-20T11:14:09.532Z,5.60
2018-01-20T11:16:37.133Z,5.40
2018-01-20T11:19:05.470Z,3.77
2018-01-20T11:21:33.030Z,9.67
2018-01-20T11:24:00.558Z,5.13
2018-01-20T11:26:28.131Z,8.17
2018-01-20T11:28:55.696Z,6.03
2018-01-20T11:31:23.289Z,5.27
2018-01-20T11:33:50.828Z,5.27
2018-01-20T11:36:18.375Z,4.43
2018-01-20T11:38:45.940Z,6.03
2018-01-20T11:41:13.456Z,5.20
2018-01-20T11:43:41.017Z,5.93
2018-01-20T11:46:09.343Z,4.63
2018-01-20T11:48:36.871Z,6.20
2018-01-20T11:51:05.252Z,2.97
2018-01-20T11:53:32.783Z,4.80
2018-01-20T11:56:00.352Z,5.10
2018-01-20T11:58:27.898Z,3.67
2018-01-20T12:00:55.473Z,6.40
2018-01-20T12:03:22.997Z,3.27
2018-01-20T12:05:50.552Z,6.57
2018-01-20T12:08:18.109Z,3.73
2018-01-20T12:10:45.671Z,5.80
2018-01-20T12:13:13.230Z,5.70
2018-01-20T12:15:40.785Z,7.07
2018-01-20T12:18:08.349Z,3.57
2018-01-20T12:20:35.877Z,6.07
2018-01-20T12:23:03.453Z,6.00
2018-01-20T12:25:31.036Z,4.37
2018-01-20T12:27:58.633Z,4.47
2018-01-20T12:30:26.985Z,8.67
2018-01-20T12:32:54.549Z,7.83
2018-01-20T12:35:22.105Z,6.93
2018-01-20T12:37:49.657Z,5.07
2018-01-20T12:40:17.269Z,5.33
2018-01-20T12:42:44.830Z,5.90
2018-01-20T12:45:12.362Z,3.13
2018-01-20T12:47:40.690Z,2.87
2018-01-20T12:50:08.224Z,2.63
2018-01-20T12:52:35.738Z,3.83
2018-01-20T12:55:03.285Z,3.07
2018-01-20T12:57:31.090Z,3.00
2018-01-20T12:59:58.648Z,3.63
2018-01-20T13:02:26.984Z,4.83
2018-01-20T13:04:54.552Z,2.70
2018-01-20T13:07:22.068Z,2.43
2018-01-20T13:09:49.641Z,2.33
2018-01-20T13:12:17.220Z,4.00
2018-01-20T13:14:44.740Z,3.80
2018-01-20T13:17:12.252Z,3.87
2018-01-20T13:19:39.803Z,2.70
2018-01-20T13:22:07.353Z,2.20
2018-01-20T13:24:34.921Z,4.70
2018-01-20T13:27:02.481Z,3.87
2018-01-20T13:29:30.004Z,4.70
2018-01-20T13:31:57.562Z,3.63
2018-01-20T13:34:25.128Z,4.03
2018-01-20T13:36:52.648Z,3.73
2018-01-20T13:39:20.975Z,8.13
2018-01-20T13:41:48.526Z,5.20
2018-01-20T13:44:16.073Z,3.10
2018-01-20T13:46:44.333Z,3.47
2018-01-20T13:49:11.909Z,2.47
2018-01-20T13:51:39.452Z,2.80
2018-01-20T13:54:07.017Z,2.90
2018-01-20T13:56:35.373Z,2.50
2018-01-20T13:59:02.932Z,2.40
2018-01-20T14:01:30.502Z,2.60
2018-01-20T14:03:58.039Z,2.00
2018-01-20T14:06:25.564Z,2.20
2018-01-20T14:08:53.123Z,1.80
2018-01-20T14:11:20.656Z,2.50
2018-01-20T14:13:48.218Z,2.33
2018-01-20T14:16:16.497Z,2.20
2018-01-20T14:18:44.055Z,2.40
2018-01-20T14:21:11.603Z,3.03
2018-01-20T14:23:39.165Z,2.30
2018-01-20T14:26:06.731Z,2.67
2018-01-20T14:28:34.296Z,2.30
2018-01-20T14:31:01.875Z,2.43
2018-01-20T14:33:29.408Z,2.10
2018-01-20T14:35:57.718Z,2.03
2018-01-20T14:38:25.257Z,2.67
2018-01-20T14:40:52.813Z,2.43
2018-01-20T14:43:20.326Z,2.50
2018-01-20T14:45:47.902Z,5.13
2018-01-20T14:48:15.433Z,2.77
2018-01-20T14:50:42.990Z,3.57
2018-01-20T14:53:10.520Z,3.93
2018-01-20T14:55:38.075Z,3.30
2018-01-20T14:58:06.385Z,5.33
2018-01-20T15:00:33.945Z,6.10
2018-01-20T15:03:01.513Z,4.13
2018-01-20T15:05:29.053Z,3.70
2018-01-20T15:07:56.604Z,5.83
2018-01-20T15:10:24.120Z,4.63
2018-01-20T15:12:51.677Z,3.23
2018-01-20T15:15:19.190Z,3.33
2018-01-20T15:17:46.713Z,3.93
2018-01-20T15:20:14.288Z,2.80
2018-01-20T15:22:41.933Z,4.30
2018-01-20T15:25:10.299Z,2.77
2018-01-20T15:27:38.626Z,3.73
2018-01-20T15:30:06.176Z,4.83
2018-01-20T15:32:33.734Z,3.77
2018-01-20T15:35:01.295Z,5.30
2018-01-20T15:37:28.863Z,3.17
2018-01-20T15:39:56.430Z,6.63
2018-01-20T15:42:23.946Z,4.00
2018-01-20T15:44:51.497Z,5.03
2018-01-20T15:47:19.814Z,3.83
2018-01-20T15:49:47.386Z,3.93
2018-01-20T15:52:14.901Z,3.33
2018-01-20T15:54:42.519Z,5.23
2018-01-20T15:57:10.070Z,4.10
2018-01-20T15:59:37.622Z,3.97
2018-01-20T16:02:05.183Z,4.57
2018-01-20T16:04:32.707Z,3.93
2018-01-20T16:07:01.014Z,4.10
2018-01-20T16:09:28.612Z,3.40
2018-01-20T16:11:56.133Z,5.73
2018-01-20T16:14:23.721Z,5.63
2018-01-20T16:16:51.559Z,6.90
2018-01-20T16:19:19.106Z,5.00
2018-01-20T16:21:46.656Z,3.90
2018-01-20T16:24:14.224Z,3.50
2018-01-20T16:26:41.811Z,4.77
2018-01-20T16:29:09.379Z,4.97
2018-01-20T16:31:36.998Z,4.70
2018-01-20T16:34:04.564Z,3.83
2018-01-20T16:36:32.451Z,4.30
2018-01-20T16:39:00.041Z,4.20
2018-01-20T16:41:27.585Z,3.93
2018-01-20T16:43:55.146Z,3.90
2018-01-20T16:46:22.759Z,3.97
2018-01-20T16:48:50.324Z,4.23
2018-01-20T16:51:17.947Z,3.77
2018-01-20T16:53:45.484Z,3.80
2018-01-20T16:56:13.048Z,4.00
2018-01-20T16:58:40.568Z,4.10
2018-01-20T17:01:08.129Z,3.60
2018-01-20T17:03:35.706Z,3.80
2018-01-20T17:06:03.260Z,4.13
2018-01-20T17:08:30.823Z,4.80
2018-01-20T17:10:58.422Z,4.37
2018-01-20T17:13:26.022Z,4.10
2018-01-20T17:15:53.596Z,3.73
2018-01-20T17:18:21.115Z,4.70
2018-01-20T17:20:48.718Z,3.60
2018-01-20T17:23:16.233Z,4.50
2018-01-20T17:25:44.616Z,7.53
2018-01-20T17:28:12.944Z,4.47
2018-01-20T17:30:40.524Z,5.23
2018-01-20T17:33:08.044Z,5.20
2018-01-20T17:35:35.575Z,4.77
2018-01-20T17:38:03.167Z,3.30
2018-01-20T17:40:31.419Z,4.40
2018-01-20T17:42:58.981Z,6.20
2018-01-20T17:45:26.553Z,5.07
2018-01-20T17:47:54.109Z,5.47
2018-01-20T17:50:21.728Z,5.37
2018-01-20T17:52:49.248Z,7.23
2018-01-20T17:55:16.830Z,7.33
2018-01-20T17:57:44.374Z,5.67
2018-01-20T18:00:11.928Z,4.23
2018-01-20T18:02:39.507Z,4.77
2018-01-20T18:05:07.021Z,4.50
2018-01-20T18:07:35.345Z,4.33
2018-01-20T18:10:02.928Z,3.57
2018-01-20T18:12:30.520Z,4.77
2018-01-20T18:14:58.073Z,3.40
2018-01-20T18:17:26.398Z,3.83
2018-01-20T18:19:53.911Z,5.80
2018-01-20T18:22:21.478Z,3.30
2018-01-20T18:24:49.109Z,3.43
2018-01-20T18:27:16.632Z,4.03
2018-01-20T18:29:44.185Z,3.80
2018-01-20T18:32:11.759Z,4.77
2018-01-20T18:34:39.362Z,4.47
2018-01-20T18:37:06.965Z,4.77
2018-01-20T18:39:34.591Z,8.93
2018-01-20T18:42:02.105Z,7.17
2018-01-20T18:44:29.772Z,8.03
2018-01-20T18:46:57.323Z,5.30
2018-01-20T18:49:24.949Z,5.63
2018-01-20T18:51:52.504Z,5.77
2018-01-20T18:54:20.029Z,5.50
2018-01-20T18:56:47.572Z,4.90
2018-01-20T18:59:15.100Z,4.13
2018-01-20T19:01:42.703Z,5.00
2018-01-20T19:04:10.213Z,5.13
2018-01-20T19:06:37.752Z,6.60
2018-01-20T19:09:06.038Z,7.50
2018-01-20T19:11:33.631Z,7.43
2018-01-20T19:14:01.153Z,8.03
2018-01-20T19:16:28.745Z,9.63
2018-01-20T19:18:56.547Z,7.30
2018-01-20T19:21:24.161Z,7.73
2018-01-20T19:23:51.684Z,6.43
2018-01-20T19:26:19.288Z,8.63
2018-01-20T19:28:46.823Z,9.70
2018-01-20T19:31:14.419Z,11.10
2018-01-20T19:33:41.933Z,10.77
2018-01-20T19:36:10.249Z,9.23
2018-01-20T19:38:37.817Z,9.07
2018-01-20T19:41:05.358Z,10.50
2018-01-20T19:43:32.965Z,8.30
2018-01-20T19:46:00.535Z,9.17
2018-01-20T19:48:28.141Z,10.70
2018-01-20T19:50:55.669Z,10.47
2018-01-20T19:53:24.050Z,13.70
2018-01-20T19:55:52.404Z,11.93
2018-01-20T19:58:20.003Z,16.30
2018-01-20T20:00:47.588Z,12.30
2018-01-20T20:03:15.211Z,10.00
2018-01-20T20:05:42.852Z,20.17
2018-01-20T20:08:10.438Z,16.97
2018-01-20T20:10:38.008Z,18.63
2018-01-20T20:13:05.583Z,19.33
2018-01-20T20:15:33.188Z,12.17
2018-01-20T20:18:00.713Z,15.77
2018-01-20T20:20:28.299Z,13.73
2018-01-20T20:22:55.868Z,8.67
2018-01-20T20:25:23.472Z,8.67
2018-01-20T20:27:51.081Z,10.33
2018-01-20T20:30:18.684Z,6.37
2018-01-20T20:32:46.261Z,5.17
2018-01-20T20:35:13.854Z,9.80
2018-01-20T20:37:41.384Z,10.67
2018-01-20T20:40:08.998Z,11.53
2018-01-20T20:42:36.533Z,9.27
2018-01-20T20:45:04.086Z,9.00
2018-01-20T20:47:31.690Z,9.27
2018-01-20T20:49:59.212Z,10.40
2018-01-20T20:52:26.768Z,11.93
2018-01-20T20:54:54.322Z,10.30
2018-01-20T20:57:21.926Z,9.07
2018-01-20T20:59:50.267Z,9.23
2018-01-20T21:02:17.896Z,9.17
2018-01-20T21:04:45.442Z,10.60
2018-01-20T21:07:13.014Z,10.03
2018-01-20T21:09:40.590Z,8.27
2018-01-20T21:12:08.194Z,11.73
2018-01-20T21:14:35.749Z,8.93
2018-01-20T21:17:03.311Z,8.30
2018-01-20T21:19:30.909Z,10.90
2018-01-20T21:21:58.463Z,10.37
2018-01-20T21:24:25.993Z,10.37
2018-01-20T21:26:53.607Z,11.97
2018-01-20T21:29:21.233Z,14.40
2018-01-20T21:31:48.808Z,15.67
2018-01-20T21:34:16.403Z,12.93
2018-01-20T21:36:44.003Z,12.67
2018-01-20T21:39:12.387Z,16.77
2018-01-20T21:41:40.732Z,12.13
2018-01-20T21:44:08.365Z,12.30
2018-01-20T21:46:35.884Z,12.43
2018-01-20T21:49:04.726Z,12.90
2018-01-20T21:51:32.338Z,13.60
2018-01-20T21:54:00.073Z,13.37
2018-01-20T21:56:27.765Z,13.63
2018-01-20T21:58:55.380Z,12.40
2018-01-20T22:01:22.897Z,12.73
2018-01-20T22:03:50.457Z,12.37
2018-01-20T22:06:17.980Z,11.27
2018-01-20T22:08:45.574Z,11.20
2018-01-20T22:11:13.913Z,10.23
2018-01-20T22:13:41.525Z,9.57
2018-01-20T22:16:09.132Z,10.17
2018-01-20T22:18:36.738Z,9.93
2018-01-20T22:21:05.013Z,8.60
2018-01-20T22:23:33.336Z,8.57
2018-01-20T22:26:00.974Z,8.47
2018-01-20T22:28:28.521Z,9.23
2018-01-20T22:30:56.068Z,8.83
2018-01-20T22:33:23.581Z,9.30
2018-01-20T22:35:51.228Z,10.13
2018-01-20T22:38:18.735Z,9.30
2018-01-20T22:40:47.115Z,8.43
2018-01-20T22:43:15.452Z,8.70
2018-01-20T22:45:43.050Z,9.67
2018-01-20T22:48:10.559Z,9.60
2018-01-20T22:50:38.150Z,11.17
2018-01-20T22:53:05.700Z,9.23
2018-01-20T22:55:33.290Z,11.23
2018-01-20T22:58:00.904Z,10.10
2018-01-20T23:00:28.533Z,9.10
2018-01-20T23:02:56.089Z,9.60
2018-01-20T23:05:24.372Z,9.07
2018-01-20T23:07:51.972Z,9.80
2018-01-20T23:10:19.522Z,9.83
2018-01-20T23:12:47.117Z,9.37
2018-01-20T23:15:14.635Z,8.97
2018-01-20T23:17:42.222Z,8.43
2018-01-20T23:20:09.795Z,8.53
2018-01-20T23:22:37.345Z,8.43
2018-01-20T23:25:04.864Z,8.53
2018-01-20T23:27:32.415Z,8.20
2018-01-20T23:29:59.933Z,9.33
2018-01-20T23:32:27.470Z,8.07
2018-01-20T23:34:55.054Z,8.80
2018-01-20T23:37:22.564Z,8.83
2018-01-20T23:39:50.119Z,9.67
2018-01-20T23:42:17.643Z,13.20
2018-01-20T23:44:45.287Z,13.50
2018-01-20T23:47:12.800Z,12.27
2018-01-20T23:49:40.392Z,8.30
2018-01-20T23:52:08.727Z,9.30
2018-01-20T23:54:36.309Z,8.53
2018-01-20T23:57:03.921Z,8.50
2018-01-20T23:59:31.496Z,10.17
